Miesville, Minnesota
Current Conditions -  °F | °C
As of 8:34 AM on Thursday 27 Nov 2014 (Local Time) from KSYN Reporting Station
Clear Clear  
Wind Chill: -21°   Ceiling: Unl
Heat Index: -7°   Visibility: 10mi
Dew Point: -12°   Wind: 7mph
Humidity: 79%   Direction: 290°WNW
Pressure: 30.49"   Gusts: NA
Location:  44.4763°N, 92.8054°W
Report Text: KSYN 271434Z AUTO 29006KT 10SM CLR M21/M24 A3049 RMK AO2 T12141242
Loading
Personal Weather Stations






























Interactive Weather Map New forecast layout! Learn more

10-Day Weather Forecast

Advertisements
Track Severe Weather on mobile